Lamar, Missouri
Current Conditions -  °F | °C
As of 7:55 PM on Friday 24 Oct 2014 (Local Time) from KPTS Reporting Station
Clear Clear  
Wind Chill: 67°   Ceiling: Unl
Heat Index: 67°   Visibility: 10mi
Dew Point: 62°   Wind: 7mph
Humidity: 84%   Direction: 200°SSW
Pressure: 30.02"   Gusts: NA
Location:  37.5°N, 94.28°W
Report Text: KPTS 250055Z AUTO 20006KT 10SM CLR 20/17 A3002 RMK AO2 T01950168
Loading
Personal Weather Stations






























Interactive Weather Map
Tropical Storm Tracking
New forecast layout! Learn more

10-Day Weather Forecast

Advertisements
Track Severe Weather on mobile